Terminal Aerodrome Forecast
Issued by NWS Melbourne, FL

Home | Current Version | Previous Version | Text Only | Print | Product List | Glossary On
Versions: 1 2 3 4 5 6 7 8 9 10 11 12 13 14 15 16 17 18 19 20 21
945
FTUS42 KMLB 232159 AAA
TAFDAB
TAF AMD
KDAB 232159Z 2322/2418 07016G21KT P6SM SCT060 BKN090
     FM240000 06010KT P6SM FEW030 BKN100
     FM241400 08014G22KT P6SM SCT030 BKN120=

USA.gov is the U.S. government's official web portal to all federal, state and local government web resources and services.